Terminal Aerodrome Forecast
Issued by NWS Lubbock, TX

Home | Current Version | Previous Version | Text Only | Print | Product List | Glossary On
Versions: 1 2 3 4 5 6 7 8 9 10 11 12 13 14 15 16 17
000
FTUS44 KLUB 182300
TAFLBB
TAF
KLBB 182321Z 1900/1924 17014G20KT P6SM BKN250
     FM190100 15011KT P6SM BKN250
     FM191500 18016KT P6SM BKN030 BKN180 PROB30 1918/1924 -TSRA
      BKN060CB=

USA.gov is the U.S. government's official web portal to all federal, state and local government web resources and services.